Time;durP1;ratioP1;P1;durP2;ratioP2;P2;SDS_P1;SDS_P2;PMS_P1;PMS_P2;Temp;Humidity;BMP_temperature;BMP_pressure;BME280_temperature;BME280_humidity;BME280_pressure;Samples;Min_cycle;Max_cycle;Signal;HPM_P1;HPM_P2
2023/01/17 00:01:44;;;;;;;0.55;0.55;;;;;;;3.92;77.89;97268.16;5108166;28;20036;-72
2023/01/17 00:09:55;;;;;;;0.50;0.50;;;;;;;4.07;76.40;97260.84;5108135;28;20054;-69
2023/01/17 00:12:22;;;;;;;0.60;0.60;;;;;;;3.89;76.73;97258.00;5108212;28;20019;-72
2023/01/17 00:14:48;;;;;;;0.50;0.50;;;;;;;3.65;78.16;97252.75;5107883;28;20035;-72
2023/01/17 00:17:14;;;;;;;0.80;0.80;;;;;;;3.84;77.64;97254.72;5108115;28;20020;-69
2023/01/17 01:34:19;;;;;;;0.50;0.50;;;;;;;3.56;77.34;97237.66;5105983;28;20514;-72
2023/01/17 01:36:44;;;;;;;0.50;0.50;;;;;;;3.51;77.73;97230.09;5106473;28;20028;-72
2023/01/17 01:39:12;;;;;;;0.50;0.50;;;;;;;3.58;77.92;97225.59;5106128;28;20052;-70
2023/01/17 01:41:37;;;;;;;1.00;1.00;;;;;;;3.92;75.65;97231.38;5106280;28;20020;-70
2023/01/17 01:44:03;;;;;;;0.40;0.40;;;;;;;3.77;76.23;97240.44;5106139;28;20045;-73
2023/01/17 01:46:31;;;;;;;0.50;0.50;;;;;;;3.95;75.29;97238.97;5106259;28;20028;-73
2023/01/17 01:48:59;;;;;;;0.50;0.50;;;;;;;3.74;76.68;97235.38;5104618;28;20028;-71
2023/01/17 01:51:31;;;;;;;0.60;0.60;;;;;;;3.58;77.33;97223.03;5088047;28;20028;-73
2023/01/17 01:54:03;;;;;;;0.60;0.60;;;;;;;3.61;77.18;97238.31;5105995;28;20028;-72
2023/01/17 01:56:30;;;;;;;0.60;0.60;;;;;;;3.94;75.44;97238.16;5104306;28;20035;-71
2023/01/17 01:58:58;;;;;;;0.50;0.50;;;;;;;3.63;77.10;97218.59;5106227;28;20087;-72
2023/01/17 02:01:23;;;;;;;0.50;0.50;;;;;;;3.86;75.90;97213.63;5105832;28;20031;-71
2023/01/17 02:03:49;;;;;;;2.60;2.45;;;;;;;3.92;75.61;97218.53;5105704;28;20024;-71
2023/01/17 02:06:24;;;;;;;1.95;1.85;;;;;;;3.99;74.49;97232.88;5106010;28;20020;-73
2023/01/17 02:08:49;;;;;;;0.43;0.43;;;;;;;3.75;76.17;97219.09;5105860;28;20122;-71
2023/01/17 02:11:15;;;;;;;0.95;0.95;;;;;;;3.54;77.19;97219.75;5105857;28;20044;-72
2023/01/17 02:13:42;;;;;;;0.60;0.60;;;;;;;4.11;74.39;97210.22;5105788;28;20031;-69
2023/01/17 02:16:24;;;;;;;0.60;0.60;;;;;;;3.89;75.18;97209.22;5105654;28;20051;-71
2023/01/17 02:19:01;;;;;;;;;;;;;;;3.82;75.80;97203.44;5105583;28;20020;-73
2023/01/17 02:21:51;;;;;;;0.50;0.50;;;;;;;3.52;76.49;97208.69;5104510;28;19907;-73
2023/01/17 02:24:49;;;;;;;0.60;0.60;;;;;;;3.69;76.64;97203.00;5087410;28;20490;-72
2023/01/17 02:27:23;;;;;;;0.50;0.50;;;;;;;3.61;76.55;97199.03;5062831;28;20049;-73
2023/01/17 02:30:30;;;;;;;0.60;0.60;;;;;;;3.58;77.10;97189.69;5062643;28;20032;-71
2023/01/17 02:33:04;;;;;;;0.50;0.50;;;;;;;3.55;76.88;97192.34;5062654;28;20526;-72
2023/01/17 02:35:33;;;;;;;0.50;0.50;;;;;;;3.45;77.81;97194.38;5062611;28;20029;-74
2023/01/17 02:38:03;;;;;;;0.60;0.60;;;;;;;3.36;78.42;97200.63;5062739;28;20044;-74
2023/01/17 02:40:43;;;;;;;0.60;0.60;;;;;;;3.79;76.27;97180.47;5062484;28;20072;-71
2023/01/17 02:43:15;;;;;;;0.50;0.50;;;;;;;3.50;77.26;97199.38;5062566;28;20043;-74
2023/01/17 02:45:41;;;;;;;0.70;0.70;;;;;;;3.62;77.36;97190.44;5062602;28;20087;-74
2023/01/17 02:48:12;;;;;;;0.50;0.50;;;;;;;3.56;77.03;97187.16;5061273;28;20037;-74
2023/01/17 02:50:58;;;;;;;0.57;0.57;;;;;;;3.52;77.57;97212.97;5061477;28;20105;-74
2023/01/17 02:53:57;;;;;;;0.52;0.52;;;;;;;3.66;77.23;97192.03;5061315;28;20108;-74
2023/01/17 02:57:00;;;;;;;0.60;0.60;;;;;;;3.64;77.33;97188.66;5045814;28;20021;-72
2023/01/17 02:59:39;;;;;;;0.50;0.50;;;;;;;3.49;77.91;97195.09;5045721;28;20434;-74
2023/01/17 03:02:13;;;;;;;0.60;0.60;;;;;;;3.67;77.01;97173.16;5045903;28;20021;-71
2023/01/17 03:04:49;;;;;;;0.50;0.50;;;;;;;3.75;76.10;97185.75;5090466;28;20062;-71
2023/01/17 03:07:20;;;;;;;0.88;0.88;;;;;;;3.99;74.55;97184.09;5105289;28;20027;-71
2023/01/17 03:09:52;;;;;;;0.50;0.50;;;;;;;3.68;75.94;97179.97;5086974;28;20024;-73
2023/01/17 03:12:19;;;;;;;0.50;0.50;;;;;;;3.79;75.59;97174.47;5103809;28;20028;-72
2023/01/17 03:14:44;;;;;;;1.58;1.58;;;;;;;3.67;76.09;97175.72;5104874;28;20020;-71
2023/01/17 03:17:09;;;;;;;0.50;0.50;;;;;;;3.55;77.09;97205.16;5086742;28;20035;-72
2023/01/17 03:19:35;;;;;;;0.50;0.50;;;;;;;3.82;76.08;97179.50;5103498;28;20023;-70
2023/01/17 03:22:00;;;;;;;0.50;0.50;;;;;;;3.69;76.15;97172.22;5105111;28;20468;-73
2023/01/17 03:24:25;;;;;;;0.50;0.50;;;;;;;3.54;77.04;97173.56;5086349;28;20024;-72
2023/01/17 03:26:51;;;;;;;0.60;0.60;;;;;;;3.89;75.46;97173.28;5104936;28;20035;-71
2023/01/17 03:29:17;;;;;;;0.60;0.60;;;;;;;3.62;76.37;97172.47;5103373;28;20063;-72
2023/01/17 03:31:42;;;;;;;0.50;0.50;;;;;;;3.79;75.96;97161.66;5106517;28;20031;-70
2023/01/17 03:34:08;;;;;;;0.82;0.82;;;;;;;3.59;76.46;97168.28;5108741;28;20077;-74
2023/01/17 03:36:33;;;;;;;0.70;0.70;;;;;;;3.76;76.18;97157.47;5108845;28;20436;-71
2023/01/17 03:38:59;;;;;;;0.52;0.52;;;;;;;3.82;75.50;97141.88;5107053;28;20044;-70
2023/01/17 03:41:24;;;;;;;0.60;0.60;;;;;;;3.79;75.52;97147.09;5108708;28;20107;-70
2023/01/17 03:43:49;;;;;;;0.55;0.55;;;;;;;3.90;74.59;97143.34;5107333;28;20024;-73
2023/01/17 03:46:24;;;;;;;0.60;0.60;;;;;;;3.87;74.56;97136.56;5090327;28;20049;-69
2023/01/17 03:48:50;;;;;;;0.50;0.50;;;;;;;3.80;74.90;97143.63;5106584;28;20020;-72
2023/01/17 03:51:16;;;;;;;0.50;0.50;;;;;;;3.59;75.80;97137.50;5108775;28;20546;-74
2023/01/17 03:53:42;;;;;;;0.70;0.70;;;;;;;3.58;76.54;97135.81;5108442;28;20024;-74
2023/01/17 03:56:07;;;;;;;1.33;1.33;;;;;;;3.40;77.31;97132.13;5108448;28;20027;-74
2023/01/17 03:58:33;;;;;;;0.50;0.50;;;;;;;3.74;75.74;97117.38;5108327;28;20042;-72
2023/01/17 04:00:58;;;;;;;0.57;0.57;;;;;;;3.59;76.00;97109.28;5090162;28;20118;-72
2023/01/17 04:03:23;;;;;;;3.97;3.67;;;;;;;3.67;75.76;97107.31;5108225;28;20426;-70
2023/01/17 04:05:49;;;;;;;0.60;0.60;;;;;;;3.67;75.65;97109.88;5107968;28;20051;-72
2023/01/17 04:08:17;;;;;;;0.52;0.52;;;;;;;3.68;75.75;97100.44;5108270;28;20024;-73
2023/01/17 04:10:43;;;;;;;0.60;0.60;;;;;;;3.62;75.60;97109.19;5106660;28;20023;-72
2023/01/17 04:13:08;;;;;;;0.88;0.88;;;;;;;3.61;75.91;97106.66;5107922;28;20050;-72
2023/01/17 04:15:34;;;;;;;0.50;0.50;;;;;;;3.83;74.64;97104.22;5108325;28;20030;-73
2023/01/17 04:17:59;;;;;;;0.70;0.70;;;;;;;3.68;74.90;97097.88;5108027;28;20040;-74
2023/01/17 04:20:36;;;;;;;0.60;0.60;;;;;;;3.84;74.31;97098.19;5107864;28;20099;-71
2023/01/17 04:23:02;;;;;;;0.70;0.70;;;;;;;3.61;75.36;97099.78;5107955;28;20120;-73
2023/01/17 04:25:31;;;;;;;0.60;0.60;;;;;;;3.64;75.05;97099.72;5089732;28;20063;-74
2023/01/17 04:27:58;;;;;;;0.50;0.50;;;;;;;3.48;76.23;97094.25;5089575;28;20027;-71
2023/01/17 04:30:24;;;;;;;0.50;0.50;;;;;;;3.63;75.52;97100.59;5106447;28;20452;-72
2023/01/17 04:32:50;;;;;;;0.50;0.50;;;;;;;3.68;75.37;97088.44;5107706;28;20032;-73
2023/01/17 04:35:15;;;;;;;0.60;0.60;;;;;;;4.00;73.51;97082.25;5107453;28;20031;-71
2023/01/17 04:37:41;;;;;;;0.50;0.50;;;;;;;3.61;74.93;97092.09;5107770;28;20031;-73
2023/01/17 04:40:07;;;;;;;0.52;0.52;;;;;;;3.80;74.32;97079.47;5107408;28;20040;-72
2023/01/17 04:42:33;;;;;;;1.23;1.17;;;;;;;3.57;74.88;97070.88;5107207;28;20080;-72
2023/01/17 04:44:58;;;;;;;0.60;0.60;;;;;;;3.55;75.07;97071.78;5106073;28;20035;-72
2023/01/17 04:47:24;;;;;;;0.60;0.60;;;;;;;3.78;73.73;97080.44;5107545;28;20090;-73
2023/01/17 04:49:50;;;;;;;0.52;0.52;;;;;;;3.89;73.71;97062.94;5105794;28;20024;-70
2023/01/17 04:52:17;;;;;;;1.63;1.40;;;;;;;4.04;71.83;97078.69;5107360;28;20083;-73
2023/01/17 04:54:43;;;;;;;2.20;2.00;;;;;;;3.74;73.36;97073.75;5107131;28;20020;-72
2023/01/17 04:57:09;;;;;;;0.50;0.50;;;;;;;3.82;72.85;97058.91;5107690;28;20031;-71
2023/01/17 04:59:34;;;;;;;0.50;0.50;;;;;;;3.73;73.46;97083.16;5107233;28;20023;-73
2023/01/17 05:01:59;;;;;;;0.50;0.50;;;;;;;4.09;71.20;97057.09;5107146;28;20020;-69
2023/01/17 05:04:25;;;;;;;0.60;0.60;;;;;;;3.84;72.10;97090.47;5106856;28;20020;-72
2023/01/17 05:06:50;;;;;;;0.50;0.50;;;;;;;3.72;72.73;97077.19;5107211;28;20028;-70
2023/01/17 05:09:15;;;;;;;0.60;0.60;;;;;;;3.57;73.44;97080.28;5106926;28;20028;-70
2023/01/17 05:11:41;;;;;;;0.50;0.50;;;;;;;3.79;72.64;97059.00;5106791;28;20027;-68
2023/01/17 05:14:08;;;;;;;0.60;0.60;;;;;;;3.60;73.28;97069.91;5106913;28;20365;-70
2023/01/17 05:16:33;;;;;;;0.60;0.60;;;;;;;3.89;72.00;97070.63;5106971;28;20045;-68
2023/01/17 05:18:58;;;;;;;0.60;0.60;;;;;;;3.99;71.11;97070.31;5105232;28;20024;-68
2023/01/17 05:21:24;;;;;;;0.60;0.60;;;;;;;3.57;72.77;97070.00;5106944;28;20046;-70
2023/01/17 05:23:49;;;;;;;0.60;0.60;;;;;;;3.62;73.17;97067.28;5105504;28;20495;-68
2023/01/17 05:26:15;;;;;;;0.50;0.50;;;;;;;3.51;73.52;97070.22;5105452;28;20054;-70
2023/01/17 05:28:40;;;;;;;0.60;0.60;;;;;;;3.43;74.17;97073.06;5106640;28;20016;-73
2023/01/17 05:31:05;;;;;;;0.50;0.50;;;;;;;3.56;74.10;97038.38;5106765;28;20044;-69
2023/01/17 05:33:31;;;;;;;0.60;0.60;;;;;;;3.79;72.28;97071.84;5106325;28;20049;-72
2023/01/17 05:35:57;;;;;;;0.88;0.88;;;;;;;3.77;72.34;97055.69;5106504;28;20035;-71
2023/01/17 05:38:22;;;;;;;0.52;0.52;;;;;;;3.72;72.29;97059.22;5105720;28;20024;-73
2023/01/17 05:40:48;;;;;;;1.55;1.45;;;;;;;3.59;72.40;97061.38;5105075;28;20577;-72
2023/01/17 05:43:14;;;;;;;0.55;0.55;;;;;;;3.51;73.35;97058.25;5106087;28;20095;-73
2023/01/17 05:45:39;;;;;;;0.60;0.60;;;;;;;3.52;72.73;97057.34;5106353;28;20365;-72
2023/01/17 05:48:05;;;;;;;0.57;0.57;;;;;;;3.43;73.95;97047.41;5106305;28;20048;-73
2023/01/17 05:50:35;;;;;;;0.63;0.63;;;;;;;3.77;72.33;97053.09;5106253;28;20024;-72
2023/01/17 05:53:06;;;;;;;2.67;2.58;;;;;;;3.78;71.67;97037.66;5106430;28;20079;-71
2023/01/17 05:55:33;;;;;;;0.70;0.70;;;;;;;3.94;71.03;97047.38;5105513;28;20035;-71
2023/01/17 05:57:59;;;;;;;0.60;0.60;;;;;;;3.83;70.76;97071.66;5104969;28;20087;-73
2023/01/17 06:00:25;;;;;;;1.38;1.38;;;;;;;3.58;72.26;97064.84;5087746;28;20043;-73
2023/01/17 06:02:55;;;;;;;15.00;6.72;;;;;;;3.61;72.32;97069.00;5106047;28;20050;-71
2023/01/17 06:05:22;;;;;;;0.50;0.50;;;;;;;3.74;71.40;97058.34;5104668;28;20091;-73
2023/01/17 06:07:48;;;;;;;1.80;1.73;;;;;;;3.65;71.66;97056.91;5087994;28;20062;-71
2023/01/17 06:10:15;;;;;;;0.50;0.50;;;;;;;3.64;72.26;97053.53;5104493;28;20035;-71
2023/01/17 06:12:42;;;;;;;0.55;0.55;;;;;;;3.50;72.62;97059.13;5106095;28;20028;-72
2023/01/17 06:15:09;;;;;;;0.70;0.70;;;;;;;3.41;72.85;97039.75;5104724;28;20027;-73
2023/01/17 06:17:35;;;;;;;0.60;0.60;;;;;;;3.45;72.64;97056.72;5104706;28;20051;-74
2023/01/17 06:20:00;;;;;;;0.52;0.52;;;;;;;3.56;72.32;97042.69;5105604;28;20020;-72
2023/01/17 06:22:26;;;;;;;0.95;0.95;;;;;;;3.50;71.95;97042.91;5105736;28;20155;-73
2023/01/17 06:24:51;;;;;;;0.50;0.50;;;;;;;3.70;71.22;97050.75;5104075;28;20042;-72
2023/01/17 06:27:20;;;;;;;0.50;0.50;;;;;;;3.74;71.63;97035.25;5105878;28;20058;-68
2023/01/17 06:29:46;;;;;;;0.57;0.57;;;;;;;3.56;71.78;97048.66;5103995;28;20024;-69
2023/01/17 06:32:12;;;;;;;0.60;0.60;;;;;;;3.46;72.08;97042.16;5104831;28;20084;-70
2023/01/17 06:34:38;;;;;;;0.50;0.50;;;;;;;3.64;71.64;97039.88;5105291;28;20023;-70
2023/01/17 06:37:04;;;;;;;0.50;0.50;;;;;;;3.58;71.89;97049.44;5105371;28;20467;-72
2023/01/17 06:39:29;;;;;;;0.60;0.60;;;;;;;3.48;72.46;97050.66;5087137;28;20039;-71
2023/01/17 06:41:54;;;;;;;0.60;0.60;;;;;;;3.49;72.74;97046.34;5105208;28;20024;-70
2023/01/17 06:44:20;;;;;;;0.50;0.50;;;;;;;3.90;70.38;97049.19;5104185;28;20019;-70
2023/01/17 06:46:46;;;;;;;0.52;0.52;;;;;;;3.91;70.18;97042.34;5105378;28;20024;-71
2023/01/17 06:49:12;;;;;;;0.60;0.60;;;;;;;3.56;71.41;97040.13;5086457;28;20095;-71
2023/01/17 06:51:38;;;;;;;0.73;0.73;;;;;;;3.65;71.28;97049.22;5087333;28;20085;-71
2023/01/17 06:54:03;;;;;;;0.50;0.50;;;;;;;3.57;71.37;97049.50;5105293;28;20032;-72
2023/01/17 06:56:30;;;;;;;3.72;3.50;;;;;;;3.41;72.31;97041.47;5105399;28;20028;-71
2023/01/17 06:58:56;;;;;;;0.50;0.50;;;;;;;3.62;71.40;97057.88;5086984;28;20020;-72
2023/01/17 07:01:21;;;;;;;4.97;3.33;;;;;;;3.59;71.42;97057.97;5105329;28;20031;-73
2023/01/17 07:03:47;;;;;;;0.55;0.55;;;;;;;3.31;72.59;97052.06;5105317;28;20468;-72
2023/01/17 07:06:12;;;;;;;0.60;0.60;;;;;;;3.43;72.72;97053.38;5107600;28;20079;-70
2023/01/17 07:08:37;;;;;;;0.60;0.60;;;;;;;3.37;72.67;97051.00;5109719;28;20024;-73
2023/01/17 07:11:07;;;;;;;0.50;0.50;;;;;;;3.71;70.84;97069.53;5109417;28;20084;-71
2023/01/17 07:13:34;;;;;;;0.60;0.60;;;;;;;3.65;71.29;97052.63;5091053;28;20081;-72
2023/01/17 07:16:01;;;;;;;0.60;0.60;;;;;;;3.51;71.93;97039.44;5109315;28;20024;-71
2023/01/17 07:18:27;;;;;;;46.75;5.10;;;;;;;3.55;71.56;97031.59;5109319;28;20032;-72
2023/01/17 07:20:53;;;;;;;0.50;0.50;;;;;;;3.43;72.25;97039.72;5109119;28;20088;-71
2023/01/17 07:23:20;;;;;;;0.50;0.50;;;;;;;3.35;72.44;97047.66;5091056;28;20027;-72
2023/01/17 07:25:57;;;;;;;0.77;0.77;;;;;;;3.97;70.09;97042.97;5109206;28;20026;-69
2023/01/17 07:28:24;;;;;;;0.60;0.60;;;;;;;3.64;70.96;97034.75;5109096;28;20072;-70
2023/01/17 07:30:49;;;;;;;1.05;0.95;;;;;;;3.82;70.23;97053.75;5108970;28;20060;-71
2023/01/17 07:33:16;;;;;;;0.50;0.50;;;;;;;3.54;71.36;97053.00;5109151;28;20020;-71
2023/01/17 07:35:41;;;;;;;4.25;2.28;;;;;;;3.71;70.75;97060.13;5107415;28;20020;-71
2023/01/17 07:38:12;;;;;;;60.33;5.35;;;;;;;3.53;71.08;97071.03;5108874;28;20081;-70
2023/01/17 07:40:37;;;;;;;0.50;0.50;;;;;;;3.58;71.03;97049.44;5109095;28;20040;-70
2023/01/17 07:43:12;;;;;;;0.60;0.60;;;;;;;3.76;70.33;97069.38;5108808;28;20020;-71
2023/01/17 07:45:45;;;;;;;2.88;2.67;;;;;;;3.88;69.51;97052.72;5090394;28;20025;-71
2023/01/17 07:48:11;;;;;;;0.50;0.50;;;;;;;3.59;70.87;97057.97;5108945;28;20027;-69
2023/01/17 07:50:37;;;;;;;0.50;0.50;;;;;;;3.76;70.34;97061.69;5108462;28;20141;-69
2023/01/17 07:53:03;;;;;;;0.60;0.60;;;;;;;3.46;71.10;97048.16;5108525;28;20047;-71
2023/01/17 07:55:29;;;;;;;0.60;0.60;;;;;;;3.61;70.86;97056.19;5090404;28;20020;-71
2023/01/17 07:57:54;;;;;;;0.60;0.60;;;;;;;3.46;71.45;97068.66;5108634;28;20035;-71
2023/01/17 08:00:21;;;;;;;0.50;0.50;;;;;;;3.35;72.10;97071.56;5107246;28;20083;-71
2023/01/17 08:02:47;;;;;;;0.50;0.50;;;;;;;3.33;72.52;97054.56;5107219;28;20051;-71
2023/01/17 08:05:13;;;;;;;0.80;0.80;;;;;;;3.48;71.78;97071.19;5108187;28;20105;-72
2023/01/17 08:07:39;;;;;;;0.60;0.60;;;;;;;3.71;70.82;97080.66;5108451;28;20456;-70
2023/01/17 08:10:06;;;;;;;0.65;0.65;;;;;;;3.59;70.93;97078.50;5108305;28;20020;-71
2023/01/17 08:12:31;;;;;;;0.55;0.55;;;;;;;3.47;71.76;97070.31;5108437;28;20031;-69
2023/01/17 08:14:56;;;;;;;0.50;0.50;;;;;;;3.44;71.98;97070.44;5108388;28;20020;-71
2023/01/17 08:17:22;;;;;;;0.60;0.60;;;;;;;3.43;72.10;97060.22;5107763;28;20020;-70
2023/01/17 08:19:51;;;;;;;0.57;0.57;;;;;;;3.77;70.48;97071.06;5107964;28;20024;-70
2023/01/17 08:22:17;;;;;;;0.60;0.60;;;;;;;3.54;71.42;97085.50;5107414;28;20043;-72
2023/01/17 08:24:43;;;;;;;0.50;0.50;;;;;;;3.52;71.51;97069.31;5090445;28;20020;-72
2023/01/17 08:27:09;;;;;;;0.60;0.60;;;;;;;3.55;71.54;97072.63;5090070;28;20032;-70
2023/01/17 08:29:35;;;;;;;0.50;0.50;;;;;;;3.42;71.92;97061.13;5107912;28;20024;-71
2023/01/17 08:32:00;;;;;;;1.05;1.05;;;;;;;3.71;71.10;97051.56;5108204;28;20498;-68
2023/01/17 08:34:26;;;;;;;0.60;0.60;;;;;;;3.83;70.29;97060.59;5107653;28;20467;-71
2023/01/17 08:36:52;;;;;;;0.60;0.60;;;;;;;3.92;69.54;97055.13;5107884;28;20020;-71
2023/01/17 08:39:18;;;;;;;0.60;0.60;;;;;;;3.55;71.09;97057.25;5106210;28;20060;-71
2023/01/17 08:41:44;;;;;;;0.60;0.60;;;;;;;3.33;72.31;97057.13;5107782;28;20064;-71
2023/01/17 08:44:10;;;;;;;0.77;0.77;;;;;;;3.51;71.56;97062.53;5107824;28;20020;-70
2023/01/17 08:46:40;;;;;;;2.45;2.35;;;;;;;3.53;71.43;97058.19;5106338;28;20077;-71
2023/01/17 08:49:08;;;;;;;0.50;0.50;;;;;;;3.75;70.54;97063.44;5107302;28;20020;-71
2023/01/17 08:51:34;;;;;;;11.18;2.58;;;;;;;3.89;70.14;97055.25;5106182;28;20052;-70
2023/01/17 08:53:59;;;;;;;1.02;1.00;;;;;;;3.57;71.13;97068.28;5106120;28;20028;-72
2023/01/17 08:56:26;;;;;;;0.60;0.60;;;;;;;3.54;71.48;97058.16;5089272;28;20035;-72
2023/01/17 08:58:52;;;;;;;1.60;1.52;;;;;;;3.57;71.20;97057.19;5107454;28;20019;-71
2023/01/17 09:01:17;;;;;;;0.60;0.60;;;;;;;3.43;71.82;97048.25;5107596;28;20042;-69
2023/01/17 09:03:44;;;;;;;1.85;1.75;;;;;;;3.61;71.00;97040.78;5107159;28;20099;-70
2023/01/17 09:06:12;;;;;;;0.50;0.50;;;;;;;3.55;71.50;97054.69;5107105;28;20028;-72
2023/01/17 09:08:38;;;;;;;0.50;0.50;;;;;;;3.61;71.19;97053.63;5107305;28;20084;-71
2023/01/17 09:11:12;;;;;;;0.70;0.70;;;;;;;3.52;71.84;97051.38;5088541;28;20035;-71
2023/01/17 09:13:38;;;;;;;0.70;0.70;;;;;;;3.80;70.54;97055.56;5107395;28;20032;-71
2023/01/17 09:16:05;;;;;;;0.88;0.88;;;;;;;3.79;70.56;97039.31;5107214;28;20464;-69
2023/01/17 09:18:31;;;;;;;0.50;0.50;;;;;;;3.31;72.25;97052.06;5106932;28;20028;-71
2023/01/17 09:21:00;;;;;;;0.60;0.60;;;;;;;3.52;72.24;97051.38;5106694;28;20015;-71
2023/01/17 09:23:28;;;;;;;0.77;0.77;;;;;;;3.56;72.36;97037.56;5106875;28;20020;-70
2023/01/17 09:25:56;;;;;;;5.80;5.22;;;;;;;3.46;71.90;97052.44;5106739;28;20085;-71
2023/01/17 09:28:22;;;;;;;0.80;0.80;;;;;;;3.71;70.77;97052.44;5088136;28;20027;-72
2023/01/17 09:30:48;;;;;;;2.03;1.75;;;;;;;3.61;71.27;97027.97;5104789;28;20122;-70
2023/01/17 09:33:13;;;;;;;5.78;2.80;;;;;;;3.48;71.97;97045.53;5105418;28;20380;-71
2023/01/17 09:35:39;;;;;;;0.50;0.50;;;;;;;3.41;72.79;97037.19;5106288;28;20047;-72
2023/01/17 09:38:04;;;;;;;0.55;0.55;;;;;;;3.32;72.78;97047.78;5106536;28;20019;-72
2023/01/17 09:40:30;;;;;;;0.50;0.50;;;;;;;3.42;72.85;97050.88;5105044;28;20044;-72
2023/01/17 09:43:03;;;;;;;0.75;0.75;;;;;;;3.75;71.68;97042.06;5106705;28;20069;-71
2023/01/17 09:45:31;;;;;;;0.60;0.60;;;;;;;3.51;71.80;97044.56;5106366;28;20035;-71
2023/01/17 09:47:58;;;;;;;0.52;0.52;;;;;;;3.49;72.49;97039.50;5105047;28;20020;-71
2023/01/17 09:50:32;;;;;;;0.70;0.70;;;;;;;3.60;71.86;97044.25;5106152;28;20024;-71
2023/01/17 09:53:12;;;;;;;0.60;0.60;;;;;;;3.55;71.59;97049.56;5106484;28;20027;-71
2023/01/17 09:55:47;;;;;;;0.70;0.70;;;;;;;3.42;72.15;97053.44;5105858;28;20024;-71
2023/01/17 09:58:24;;;;;;;0.50;0.50;;;;;;;3.41;72.41;97059.44;5105181;28;20024;-71
2023/01/17 10:01:29;;;;;;;0.50;0.50;;;;;;;3.40;73.08;97039.81;5103588;28;20016;-71
2023/01/17 10:04:06;;;;;;;0.50;0.50;;;;;;;3.42;72.50;97041.44;5062442;28;20053;-70
2023/01/17 10:06:49;;;;;;;0.60;0.60;;;;;;;3.59;71.77;97034.91;5046796;28;20530;-72
2023/01/17 10:09:29;;;;;;;0.50;0.50;;;;;;;3.58;71.78;97026.34;5063356;28;20029;-72
2023/01/17 10:12:07;;;;;;;0.50;0.50;;;;;;;3.66;71.26;97018.38;5046786;28;20433;-71
2023/01/17 10:14:52;;;;;;;0.60;0.60;;;;;;;3.43;71.78;97011.50;5063203;28;20443;-72
2023/01/17 10:17:36;;;;;;;1.20;1.20;;;;;;;3.56;71.55;97010.16;5063367;28;20031;-72
2023/01/17 10:20:32;;;;;;;0.50;0.50;;;;;;;3.74;70.31;97014.72;5063023;28;20033;-70
2023/01/17 10:23:49;;;;;;;0.50;0.50;;;;;;;3.46;71.91;97044.72;5063452;28;20024;-72
2023/01/17 10:26:33;;;;;;;2.35;1.65;;;;;;;3.52;71.24;97005.19;5029840;28;20063;-70
2023/01/17 10:29:04;;;;;;;0.50;0.50;;;;;;;3.49;71.77;97005.31;5046449;28;20064;-71
2023/01/17 10:31:37;;;;;;;1.10;1.05;;;;;;;3.57;71.37;96995.63;5046846;28;20052;-71
2023/01/17 10:34:17;;;;;;;0.50;0.50;;;;;;;3.57;71.23;97003.31;5062984;28;20056;-72
2023/01/17 10:36:47;;;;;;;0.60;0.60;;;;;;;3.53;71.28;96996.63;5063259;28;20025;-71
2023/01/17 10:39:24;;;;;;;0.60;0.60;;;;;;;3.52;71.20;96982.97;5067465;28;20053;-70
2023/01/17 10:42:00;;;;;;;0.52;0.52;;;;;;;3.81;70.35;97001.63;5105278;28;20038;-70
2023/01/17 10:44:39;;;;;;;0.73;0.73;;;;;;;3.48;71.47;96996.81;5104251;28;20031;-71
2023/01/17 10:47:17;;;;;;;0.60;0.60;;;;;;;3.43;71.68;96993.56;5105602;28;20028;-70
2023/01/17 10:49:50;;;;;;;0.47;0.47;;;;;;;3.49;72.01;96992.50;5087066;28;20020;-70
2023/01/17 10:52:36;;;;;;;0.50;0.50;;;;;;;3.35;72.58;96983.56;5087455;28;20048;-71
2023/01/17 10:55:26;;;;;;;0.60;0.60;;;;;;;3.38;72.77;96980.88;5105512;28;20089;-70
2023/01/17 10:57:52;;;;;;;14.35;3.13;;;;;;;3.31;72.82;96966.59;5087250;28;20056;-71
2023/01/17 11:00:42;;;;;;;2.67;2.58;;;;;;;3.26;73.95;96968.50;5103936;28;20486;-70
2023/01/17 11:03:12;;;;;;;0.50;0.50;;;;;;;3.26;73.95;96978.75;5105559;28;20038;-69
2023/01/17 11:05:39;;;;;;;0.60;0.60;;;;;;;3.09;74.71;96975.88;5104974;28;20020;-69
2023/01/17 11:08:10;;;;;;;2.15;2.05;;;;;;;2.96;75.74;96956.66;5103605;28;20094;-70
2023/01/17 11:10:43;;;;;;;0.70;0.70;;;;;;;2.94;75.86;96963.56;5086972;28;20228;-70
2023/01/17 11:13:47;;;;;;;1.38;1.25;;;;;;;2.85;76.73;96962.13;5105510;28;20032;-70
2023/01/17 11:16:21;;;;;;;0.60;0.60;;;;;;;2.81;77.06;96963.13;5089861;28;20036;-69
2023/01/17 11:19:03;;;;;;;0.50;0.50;;;;;;;3.10;76.29;96969.00;5105221;28;20031;-69
2023/01/17 11:21:29;;;;;;;0.70;0.70;;;;;;;2.79;77.15;96940.13;5086899;28;20115;-69
2023/01/17 11:23:58;;;;;;;0.60;0.60;;;;;;;2.65;77.94;96944.84;5105054;28;20043;-70
2023/01/17 11:26:26;;;;;;;0.70;0.70;;;;;;;2.62;78.83;96956.03;5105547;28;20027;-70
2023/01/17 11:29:11;;;;;;;0.60;0.60;;;;;;;2.73;78.92;96959.06;5103764;28;20024;-70
2023/01/17 11:31:37;;;;;;;0.52;0.52;;;;;;;2.66;78.83;96937.13;5087160;28;20047;-71
2023/01/17 11:34:25;;;;;;;1.55;1.50;;;;;;;2.60;79.74;96934.75;5105089;28;20503;-70
2023/01/17 11:37:19;;;;;;;0.50;0.50;;;;;;;2.58;80.11;96931.41;5105137;28;20020;-70
2023/01/17 11:39:48;;;;;;;0.50;0.50;;;;;;;2.56;80.49;96917.81;5104986;28;20444;-70
2023/01/17 11:42:35;;;;;;;0.60;0.60;;;;;;;2.58;80.69;96919.44;5105146;28;20093;-70
2023/01/17 11:45:36;;;;;;;0.57;0.57;;;;;;;2.64;80.80;96907.31;5104999;28;20024;-70
2023/01/17 11:48:07;;;;;;;1.40;1.38;;;;;;;2.58;80.99;96898.97;5062297;28;20138;-70
2023/01/17 11:50:42;;;;;;;0.70;0.70;;;;;;;2.43;81.81;96902.03;5062016;28;20119;-70
2023/01/17 11:53:32;;;;;;;0.57;0.57;;;;;;;2.62;81.22;96907.34;5064284;28;20033;-69
2023/01/17 11:56:07;;;;;;;0.50;0.50;;;;;;;2.44;81.98;96899.41;5065948;28;20052;-68
2023/01/17 11:58:42;;;;;;;0.50;0.50;;;;;;;2.55;81.64;96900.78;5049140;28;20088;-69
2023/01/17 12:01:16;;;;;;;0.50;0.50;;;;;;;2.48;81.68;96889.88;5065962;28;20086;-69
2023/01/17 12:04:00;;;;;;;0.50;0.50;;;;;;;2.63;81.58;96892.84;5065812;28;20041;-68
2023/01/17 12:06:58;;;;;;;0.70;0.70;;;;;;;2.39;82.73;96885.91;5065717;28;20535;-68
2023/01/17 12:09:26;;;;;;;0.50;0.50;;;;;;;2.42;82.85;96900.34;5065567;28;20048;-69
2023/01/17 12:15:16;;;;;;;0.55;0.55;;;;;;;2.29;83.75;96872.56;5065651;28;20047;-67
2023/01/17 12:18:19;;;;;;;4.40;4.10;;;;;;;2.21;84.22;96877.94;5048887;28;20053;-69
2023/01/17 12:20:56;;;;;;;0.60;0.60;;;;;;;2.19;84.53;96861.78;5065521;28;20508;-69
2023/01/17 12:23:40;;;;;;;0.60;0.60;;;;;;;2.28;83.87;96867.50;5108177;28;20499;-69
2023/01/17 12:26:36;;;;;;;0.50;0.50;;;;;;;2.09;84.51;96862.97;5108125;28;20035;-70
2023/01/17 12:29:39;;;;;;;0.50;0.50;;;;;;;2.20;85.00;96863.47;5108160;28;20024;-70
2023/01/17 12:32:23;;;;;;;0.57;0.57;;;;;;;2.12;85.03;96862.03;5108164;28;20391;-69
2023/01/17 12:34:55;;;;;;;0.50;0.50;;;;;;;2.02;85.41;96862.31;5107793;28;20071;-68
2023/01/17 12:37:31;;;;;;;0.70;0.70;;;;;;;1.94;86.15;96844.66;5107932;28;20016;-68
2023/01/17 12:40:22;;;;;;;0.60;0.60;;;;;;;1.83;86.46;96827.09;5107765;28;20071;-68
2023/01/17 12:42:57;;;;;;;1.33;1.33;;;;;;;2.04;86.44;96842.66;5076166;28;20115;-69
2023/01/17 12:45:30;;;;;;;0.65;0.65;;;;;;;1.93;86.73;96844.69;5107790;28;20099;-70
2023/01/17 12:48:29;;;;;;;0.60;0.60;;;;;;;1.93;87.14;96840.41;5108090;28;20047;-69
2023/01/17 12:51:01;;;;;;;0.50;0.50;;;;;;;1.88;86.94;96836.31;5099165;28;20454;-70
2023/01/17 12:53:27;;;;;;;0.60;0.60;;;;;;;1.89;87.38;96835.44;5107723;28;20035;-70
2023/01/17 12:56:11;;;;;;;0.55;0.55;;;;;;;2.02;87.17;96846.13;5107518;28;20306;-69
2023/01/17 12:58:44;;;;;;;1.23;1.17;;;;;;;1.93;87.19;96842.97;5107506;28;20020;-70
2023/01/17 13:01:27;;;;;;;0.50;0.50;;;;;;;1.92;87.72;96828.50;5107456;28;20525;-70
2023/01/17 13:04:07;;;;;;;0.60;0.60;;;;;;;1.94;87.77;96831.00;5089132;28;20032;-70
2023/01/17 13:06:51;;;;;;;0.70;0.70;;;;;;;1.93;87.82;96825.03;5107249;28;20020;-69
2023/01/17 13:09:21;;;;;;;0.50;0.50;;;;;;;1.93;87.96;96826.78;5107243;28;20046;-69
2023/01/17 13:12:11;;;;;;;0.60;0.60;;;;;;;1.93;88.29;96830.16;5107184;28;20031;-69
2023/01/17 13:14:36;;;;;;;0.55;0.55;;;;;;;1.92;88.40;96822.53;5107182;28;20031;-69
2023/01/17 13:17:22;;;;;;;0.50;0.50;;;;;;;1.92;88.34;96819.97;5107200;28;20024;-70
2023/01/17 13:20:09;;;;;;;0.60;0.60;;;;;;;1.98;88.28;96810.41;5105756;28;20087;-70
2023/01/17 13:22:37;;;;;;;11.35;1.90;;;;;;;1.96;88.21;96819.88;5105804;28;20058;-71
2023/01/17 13:25:17;;;;;;;0.57;0.57;;;;;;;1.81;88.80;96807.53;5106939;28;20016;-71